createdAt,value
2024-05-09T00:01:38.109Z,7.44
2024-05-09T00:03:49.626Z,7.41
2024-05-09T00:06:01.608Z,7.41
2024-05-09T00:08:13.710Z,7.41
2024-05-09T00:10:34.573Z,7.40
2024-05-09T00:12:49.116Z,7.37
2024-05-09T00:15:00.700Z,7.36
2024-05-09T00:17:12.611Z,7.36
2024-05-09T00:19:25.295Z,7.37
2024-05-09T00:21:42.966Z,7.38
2024-05-09T00:23:54.612Z,7.35
2024-05-09T00:26:06.454Z,7.31
2024-05-09T00:28:18.190Z,7.27
2024-05-09T00:30:34.592Z,7.21
2024-05-09T00:32:48.543Z,7.18
2024-05-09T00:35:00.618Z,7.18
2024-05-09T00:37:12.520Z,7.17
2024-05-09T00:39:24.003Z,7.12
2024-05-09T00:41:35.695Z,7.08
2024-05-09T00:43:47.131Z,7.04
2024-05-09T00:46:02.168Z,7.00
2024-05-09T00:48:19.633Z,6.98
2024-05-09T00:50:39.570Z,6.97
2024-05-09T00:52:51.281Z,6.95
2024-05-09T00:55:02.820Z,6.96
2024-05-09T00:57:14.395Z,6.95
2024-05-09T00:59:27.370Z,6.95
2024-05-09T01:01:40.758Z,6.93
2024-05-09T01:03:52.693Z,6.90
2024-05-09T01:06:04.865Z,6.90
2024-05-09T01:08:16.793Z,6.90
2024-05-09T01:10:34.029Z,6.89
2024-05-09T01:12:47.167Z,6.87
2024-05-09T01:14:59.277Z,6.87
2024-05-09T01:17:34.327Z,6.87
2024-05-09T01:19:49.056Z,6.85
2024-05-09T01:22:04.812Z,6.84
2024-05-09T01:24:17.252Z,6.85
2024-05-09T01:26:29.014Z,6.85
2024-05-09T01:28:40.621Z,6.87
2024-05-09T01:30:51.896Z,6.87
2024-05-09T01:33:04.980Z,6.89
2024-05-09T01:35:17.352Z,6.90
2024-05-09T01:37:29.161Z,6.89
2024-05-09T01:39:41.012Z,6.86
2024-05-09T01:41:52.592Z,6.80
2024-05-09T01:44:04.342Z,6.74
2024-05-09T01:46:16.691Z,6.67
2024-05-09T01:48:28.519Z,6.62
2024-05-09T01:50:42.497Z,6.56
2024-05-09T01:52:54.957Z,6.54
2024-05-09T01:55:07.331Z,6.54
2024-05-09T01:57:19.021Z,6.52
2024-05-09T01:59:30.504Z,6.49
2024-05-09T02:01:56.397Z,6.43
2024-05-09T02:04:09.653Z,6.39
2024-05-09T02:06:21.836Z,6.33
2024-05-09T02:08:33.611Z,6.30
2024-05-09T02:10:47.820Z,6.25
2024-05-09T02:12:59.460Z,6.24
2024-05-09T02:15:11.296Z,6.22
2024-05-09T02:17:23.049Z,6.22
2024-05-09T02:19:35.130Z,6.22
2024-05-09T02:21:46.935Z,6.22
2024-05-09T02:23:58.209Z,6.21
2024-05-09T02:26:09.937Z,6.17
2024-05-09T02:28:21.724Z,6.18
2024-05-09T02:30:39.356Z,6.19
2024-05-09T02:32:53.110Z,6.21
2024-05-09T02:35:05.639Z,6.22
2024-05-09T02:37:17.153Z,6.23
2024-05-09T02:39:28.731Z,6.22
2024-05-09T02:41:40.309Z,6.22
2024-05-09T02:43:52.028Z,6.22
2024-05-09T02:46:03.786Z,6.23
2024-05-09T02:48:15.336Z,6.25
2024-05-09T02:50:34.429Z,6.25
2024-05-09T02:52:50.667Z,6.23
2024-05-09T02:55:02.206Z,6.18
2024-05-09T02:57:13.799Z,6.11
2024-05-09T02:59:25.384Z,6.07
2024-05-09T03:01:36.944Z,6.04
2024-05-09T03:03:50.563Z,6.01
2024-05-09T03:06:02.462Z,5.95
2024-05-09T03:08:14.016Z,5.89
2024-05-09T03:10:28.906Z,5.82
2024-05-09T03:12:44.859Z,5.79
2024-05-09T03:14:56.524Z,5.77
2024-05-09T03:17:08.520Z,5.77
2024-05-09T03:19:20.516Z,5.73
2024-05-09T03:21:32.193Z,5.70
2024-05-09T03:23:44.090Z,5.65
2024-05-09T03:25:55.820Z,5.62
2024-05-09T03:28:07.604Z,5.59
2024-05-09T03:30:26.164Z,5.59
2024-05-09T03:32:46.675Z,5.62
2024-05-09T03:34:58.148Z,5.67
2024-05-09T03:37:09.711Z,5.71
2024-05-09T03:39:21.602Z,5.74
2024-05-09T03:41:32.987Z,5.76
2024-05-09T03:43:44.620Z,5.78
2024-05-09T03:45:56.872Z,5.81
2024-05-09T03:48:08.827Z,5.85
2024-05-09T03:50:26.499Z,5.87
2024-05-09T03:52:45.453Z,5.87
2024-05-09T03:54:57.342Z,5.88
2024-05-09T03:57:08.891Z,5.86
2024-05-09T03:59:20.478Z,5.86
2024-05-09T04:01:32.519Z,5.87
2024-05-09T04:03:44.594Z,5.89
2024-05-09T04:05:56.603Z,5.94
2024-05-09T04:08:08.738Z,5.96
2024-05-09T04:10:27.757Z,5.98
2024-05-09T04:12:44.154Z,6.05
2024-05-09T04:14:55.837Z,6.11
2024-05-09T04:17:07.510Z,6.18
2024-05-09T04:19:19.335Z,6.25
2024-05-09T04:21:31.315Z,6.31
2024-05-09T04:23:42.923Z,6.37
2024-05-09T04:25:54.913Z,6.43
2024-05-09T04:28:06.992Z,6.54
2024-05-09T04:30:26.056Z,6.60
2024-05-09T04:32:46.330Z,6.68
2024-05-09T04:34:58.146Z,6.72
2024-05-09T04:37:10.033Z,6.71
2024-05-09T04:39:21.715Z,6.69
2024-05-09T04:41:33.291Z,6.71
2024-05-09T04:43:44.935Z,6.76
2024-05-09T04:45:56.584Z,6.81
2024-05-09T04:48:09.054Z,6.86
2024-05-09T04:50:29.374Z,6.89
2024-05-09T04:52:47.609Z,6.92
2024-05-09T04:54:59.532Z,6.95
2024-05-09T04:57:11.185Z,6.97
2024-05-09T04:59:22.923Z,7.00
2024-05-09T05:01:34.612Z,7.07
2024-05-09T05:03:46.677Z,7.13
2024-05-09T05:05:58.556Z,7.18
2024-05-09T05:08:18.816Z,7.25
2024-05-09T05:10:36.027Z,7.30
2024-05-09T05:13:07.819Z,7.37
2024-05-09T05:15:20.425Z,7.46
2024-05-09T05:17:32.431Z,7.53
2024-05-09T05:19:44.549Z,7.58
2024-05-09T05:21:56.302Z,7.62
2024-05-09T05:24:07.790Z,7.65
2024-05-09T05:26:20.571Z,7.69
2024-05-09T05:28:32.595Z,7.76
2024-05-09T05:30:45.005Z,7.84
2024-05-09T05:32:56.475Z,7.94
2024-05-09T05:35:08.311Z,8.03
2024-05-09T05:37:19.856Z,8.08
2024-05-09T05:39:31.134Z,8.15
2024-05-09T05:41:42.768Z,8.30
2024-05-09T05:43:54.664Z,8.44
2024-05-09T05:46:06.213Z,8.60
2024-05-09T05:48:18.036Z,8.69
2024-05-09T05:50:35.719Z,8.78
2024-05-09T05:52:49.491Z,8.88
2024-05-09T05:55:01.255Z,9.01
2024-05-09T05:57:13.751Z,9.08
2024-05-09T05:59:25.189Z,9.13
2024-05-09T06:01:36.852Z,9.21
2024-05-09T06:03:48.760Z,9.31
2024-05-09T06:06:03.009Z,9.39
2024-05-09T06:08:14.788Z,9.51
2024-05-09T06:10:30.602Z,9.67
2024-05-09T06:12:49.909Z,9.84
2024-05-09T06:15:01.588Z,10.00
2024-05-09T06:17:13.357Z,10.19
2024-05-09T06:19:25.347Z,10.36
2024-05-09T06:21:36.860Z,10.48
2024-05-09T06:23:49.470Z,10.62
2024-05-09T06:26:01.193Z,10.74
2024-05-09T06:28:12.732Z,10.84
2024-05-09T06:30:30.850Z,10.95
2024-05-09T06:32:49.847Z,11.17
2024-05-09T06:35:01.661Z,11.35
2024-05-09T06:37:13.326Z,11.50
2024-05-09T06:39:24.795Z,11.65
2024-05-09T06:41:39.986Z,11.79
2024-05-09T06:43:52.417Z,12.02
2024-05-09T06:46:04.359Z,12.32
2024-05-09T06:48:19.719Z,12.60
2024-05-09T06:50:37.226Z,12.82
2024-05-09T06:52:50.817Z,12.93
2024-05-09T06:55:02.424Z,12.97
2024-05-09T06:57:14.037Z,13.08
2024-05-09T06:59:25.479Z,13.22
2024-05-09T07:01:36.892Z,13.31
2024-05-09T07:03:48.733Z,13.43
2024-05-09T07:06:00.219Z,13.53
2024-05-09T07:08:11.947Z,13.54
2024-05-09T07:10:29.036Z,13.58
2024-05-09T07:12:45.812Z,13.60
2024-05-09T07:14:57.714Z,13.70
2024-05-09T07:17:09.553Z,13.76
2024-05-09T07:19:21.429Z,13.93
2024-05-09T07:21:32.976Z,14.13
2024-05-09T07:23:47.243Z,14.26
2024-05-09T07:25:59.254Z,14.39
2024-05-09T07:28:15.862Z,14.57
2024-05-09T07:30:33.143Z,14.75
2024-05-09T07:32:46.492Z,14.90
2024-05-09T07:34:58.408Z,15.05
2024-05-09T07:37:12.847Z,15.08
2024-05-09T07:39:24.669Z,15.13
2024-05-09T07:41:37.495Z,15.21
2024-05-09T07:43:49.240Z,15.41
2024-05-09T07:46:45.463Z,15.58
2024-05-09T07:50:33.285Z,15.67
2024-05-09T07:53:38.208Z,15.88
2024-05-09T07:55:50.532Z,16.02
2024-05-09T07:58:02.074Z,16.05
2024-05-09T08:00:17.294Z,16.16
2024-05-09T08:02:31.903Z,16.04
2024-05-09T08:04:43.723Z,16.07
2024-05-09T08:06:55.097Z,16.15
2024-05-09T08:09:10.850Z,16.21
2024-05-09T08:11:25.599Z,16.15
2024-05-09T08:13:39.438Z,16.21
2024-05-09T08:15:52.652Z,16.37
2024-05-09T08:18:11.450Z,16.45
2024-05-09T08:20:30.678Z,16.49
2024-05-09T08:22:45.175Z,16.61
2024-05-09T08:24:56.464Z,16.83
2024-05-09T08:27:08.280Z,17.08
2024-05-09T08:29:20.334Z,17.18
2024-05-09T08:31:37.433Z,17.20
2024-05-09T08:33:51.741Z,17.13
2024-05-09T08:36:03.546Z,17.13
2024-05-09T08:38:16.763Z,17.14
2024-05-09T08:40:34.426Z,17.09
2024-05-09T08:42:52.630Z,16.94
2024-05-09T08:45:04.811Z,16.87
2024-05-09T08:47:16.900Z,16.86
2024-05-09T08:49:29.950Z,16.88
2024-05-09T08:51:42.547Z,16.81
2024-05-09T08:53:54.116Z,16.77
2024-05-09T08:56:09.303Z,16.92
2024-05-09T08:58:21.288Z,17.06
2024-05-09T09:00:37.051Z,17.02
2024-05-09T09:02:49.645Z,17.03
2024-05-09T09:05:16.803Z,16.98
2024-05-09T09:07:31.054Z,16.95
2024-05-09T09:09:45.697Z,16.96
2024-05-09T09:11:57.734Z,17.04
2024-05-09T09:14:11.023Z,17.12
2024-05-09T09:16:35.669Z,17.15
2024-05-09T09:18:48.171Z,17.09
2024-05-09T09:21:00.237Z,17.06
2024-05-09T09:23:12.205Z,17.09
2024-05-09T09:25:24.713Z,16.94
2024-05-09T09:27:36.039Z,16.79
2024-05-09T09:29:48.718Z,16.64
2024-05-09T09:32:03.665Z,16.42
2024-05-09T09:34:15.733Z,16.28
2024-05-09T09:36:29.408Z,16.22
2024-05-09T09:38:41.395Z,16.18
2024-05-09T09:40:53.000Z,16.10
2024-05-09T09:43:09.105Z,16.05
2024-05-09T09:45:20.556Z,16.13
2024-05-09T09:47:33.169Z,16.22
2024-05-09T09:49:45.978Z,16.34
2024-05-09T09:51:57.377Z,16.40
2024-05-09T09:54:11.147Z,16.41
2024-05-09T09:56:24.224Z,16.50
2024-05-09T09:58:37.531Z,16.53
2024-05-09T10:00:49.243Z,16.60
2024-05-09T10:03:02.535Z,16.63
2024-05-09T10:05:15.516Z,16.53
2024-05-09T10:07:28.949Z,16.41
2024-05-09T10:09:40.326Z,16.34
2024-05-09T10:11:59.564Z,16.36
2024-05-09T10:14:12.050Z,16.41
2024-05-09T10:16:24.617Z,16.46
2024-05-09T10:18:40.771Z,16.49
2024-05-09T10:20:54.592Z,16.54
2024-05-09T10:23:05.913Z,16.59
2024-05-09T10:25:18.279Z,16.64
2024-05-09T10:27:30.702Z,16.71
2024-05-09T10:29:53.116Z,16.85
2024-05-09T10:32:05.415Z,16.94
2024-05-09T10:34:21.726Z,16.99
2024-05-09T10:36:33.737Z,17.08
2024-05-09T10:38:45.496Z,17.23
2024-05-09T10:40:58.410Z,17.42
2024-05-09T10:43:19.099Z,17.65
2024-05-09T10:45:30.570Z,17.81
2024-05-09T10:47:43.377Z,17.88
2024-05-09T10:49:55.678Z,17.77
2024-05-09T10:52:08.763Z,17.69
2024-05-09T10:54:20.722Z,17.63
2024-05-09T10:56:32.736Z,17.67
2024-05-09T10:58:44.503Z,17.77
2024-05-09T11:00:57.982Z,17.92
2024-05-09T11:03:11.512Z,18.15
2024-05-09T11:05:24.065Z,18.33
2024-05-09T11:07:35.560Z,18.56
2024-05-09T11:09:48.100Z,18.77
2024-05-09T11:12:00.388Z,18.87
2024-05-09T11:14:13.035Z,18.84
2024-05-09T11:16:25.019Z,18.86
2024-05-09T11:18:38.979Z,18.87
2024-05-09T11:20:55.848Z,18.80
2024-05-09T11:23:08.040Z,18.80
2024-05-09T11:25:19.793Z,18.81
2024-05-09T11:27:31.940Z,18.84
2024-05-09T11:29:44.828Z,18.86
2024-05-09T11:31:56.266Z,18.80
2024-05-09T11:34:07.938Z,18.71
2024-05-09T11:36:19.379Z,18.63
2024-05-09T11:38:31.577Z,18.62
2024-05-09T11:40:43.190Z,18.52
2024-05-09T11:42:54.812Z,18.48
2024-05-09T11:45:06.945Z,18.58
2024-05-09T11:47:18.667Z,18.72
2024-05-09T11:49:30.470Z,18.75
2024-05-09T11:51:41.852Z,18.82
2024-05-09T11:53:53.489Z,18.88
2024-05-09T11:56:05.485Z,18.94
2024-05-09T11:58:18.476Z,19.00
2024-05-09T12:00:36.604Z,19.05
2024-05-09T12:02:49.368Z,19.05
2024-05-09T12:05:01.456Z,18.99
2024-05-09T12:07:13.156Z,18.94
2024-05-09T12:09:25.537Z,19.01
2024-05-09T12:11:37.249Z,18.98
2024-05-09T12:13:49.130Z,18.98
2024-05-09T12:16:00.835Z,18.94
2024-05-09T12:18:12.708Z,18.81
2024-05-09T12:20:32.367Z,18.64
2024-05-09T12:22:48.378Z,18.68
2024-05-09T12:25:00.279Z,18.80
2024-05-09T12:27:12.260Z,18.78
2024-05-09T12:29:23.632Z,18.69
2024-05-09T12:31:35.255Z,18.68
2024-05-09T12:33:47.142Z,18.69
2024-05-09T12:35:59.703Z,18.69
2024-05-09T12:38:11.311Z,18.58
2024-05-09T12:40:31.504Z,18.36
2024-05-09T12:42:47.737Z,18.22
2024-05-09T12:44:59.682Z,18.19
2024-05-09T12:47:11.374Z,18.22
2024-05-09T12:49:24.600Z,18.29
2024-05-09T12:51:36.147Z,18.29
2024-05-09T12:53:47.559Z,18.26
2024-05-09T12:56:02.338Z,18.26
2024-05-09T12:58:17.145Z,18.24
2024-05-09T13:00:33.714Z,18.20
2024-05-09T13:02:46.273Z,18.26
2024-05-09T13:04:58.310Z,18.19
2024-05-09T13:07:09.904Z,18.09
2024-05-09T13:09:21.658Z,18.07
2024-05-09T13:11:33.089Z,18.08
2024-05-09T13:13:44.834Z,18.09
2024-05-09T13:15:56.339Z,18.06
2024-05-09T13:18:08.972Z,18.02
2024-05-09T13:20:29.163Z,18.01
2024-05-09T13:22:45.821Z,18.12
2024-05-09T13:24:57.537Z,18.22
2024-05-09T13:27:10.216Z,18.24
2024-05-09T13:29:21.843Z,18.26
2024-05-09T13:31:33.863Z,18.29
2024-05-09T13:33:45.770Z,18.34
2024-05-09T13:35:58.011Z,18.43
2024-05-09T13:38:09.713Z,18.51
2024-05-09T13:40:29.969Z,18.53
2024-05-09T13:42:48.673Z,18.52
2024-05-09T13:45:00.512Z,18.55
2024-05-09T13:47:12.550Z,18.56
2024-05-09T13:49:24.855Z,18.58
2024-05-09T13:51:36.450Z,18.55
2024-05-09T13:53:48.079Z,18.49
2024-05-09T13:55:59.868Z,18.49
2024-05-09T13:58:11.576Z,18.52
2024-05-09T14:00:37.673Z,18.52
2024-05-09T14:02:55.240Z,18.49
2024-05-09T14:05:07.739Z,18.48
2024-05-09T14:07:19.630Z,18.44
2024-05-09T14:09:31.412Z,18.38
2024-05-09T14:11:42.824Z,18.35
2024-05-09T14:13:54.560Z,18.32
2024-05-09T14:16:06.872Z,18.29
2024-05-09T14:18:19.045Z,18.29
2024-05-09T14:20:32.246Z,18.28
2024-05-09T14:22:44.179Z,18.25
2024-05-09T14:24:55.874Z,18.22
2024-05-09T14:27:07.606Z,18.26
2024-05-09T14:29:19.346Z,18.31
2024-05-09T14:31:31.015Z,18.31
2024-05-09T14:33:42.863Z,18.31
2024-05-09T14:35:55.027Z,18.34
2024-05-09T14:38:10.062Z,18.34
2024-05-09T14:42:38.487Z,18.34
2024-05-09T14:44:50.679Z,18.34
2024-05-09T14:47:02.706Z,18.35
2024-05-09T14:49:14.454Z,18.29
2024-05-09T14:51:26.459Z,18.25
2024-05-09T14:53:38.302Z,18.23
2024-05-09T14:55:50.375Z,18.19
2024-05-09T14:58:02.930Z,18.13
2024-05-09T15:00:21.460Z,18.11
2024-05-09T15:02:40.262Z,18.10
2024-05-09T15:04:52.359Z,18.08
2024-05-09T15:07:04.377Z,18.07
2024-05-09T15:09:15.912Z,18.09
2024-05-09T15:11:27.695Z,18.11
2024-05-09T15:13:39.668Z,18.12
2024-05-09T15:15:51.791Z,18.12
2024-05-09T15:18:07.327Z,18.10
2024-05-09T15:20:30.793Z,18.07
2024-05-09T15:22:49.206Z,18.07
2024-05-09T15:25:05.240Z,18.06
2024-05-09T15:27:18.414Z,18.07
2024-05-09T15:29:30.624Z,18.06
2024-05-09T15:31:42.144Z,18.05
2024-05-09T15:33:53.830Z,18.04
2024-05-09T15:36:05.722Z,18.03
2024-05-09T15:38:18.563Z,17.99
2024-05-09T15:40:37.252Z,17.93
2024-05-09T15:42:51.821Z,17.92
2024-05-09T15:45:03.704Z,17.91
2024-05-09T15:47:15.290Z,17.93
2024-05-09T15:49:26.896Z,17.95
2024-05-09T15:51:38.677Z,17.95
2024-05-09T15:53:50.481Z,17.93
2024-05-09T15:56:02.479Z,17.92
2024-05-09T15:58:14.519Z,17.89
2024-05-09T16:00:36.464Z,17.86
2024-05-09T16:02:51.604Z,17.84
2024-05-09T16:05:03.387Z,17.85
2024-05-09T16:07:15.002Z,17.85
2024-05-09T16:09:26.593Z,17.85
2024-05-09T16:11:38.129Z,17.86
2024-05-09T16:13:50.627Z,17.86
2024-05-09T16:16:03.796Z,17.86
2024-05-09T16:18:15.767Z,17.86
2024-05-09T16:20:35.236Z,17.81
2024-05-09T16:22:51.782Z,17.76
2024-05-09T16:25:03.611Z,17.77
2024-05-09T16:27:15.655Z,17.75
2024-05-09T16:29:27.140Z,17.75
2024-05-09T16:31:38.610Z,17.76
2024-05-09T16:33:50.964Z,17.75
2024-05-09T16:36:02.610Z,17.71
2024-05-09T16:38:13.904Z,17.70
2024-05-09T16:40:34.388Z,17.69
2024-05-09T16:42:50.339Z,17.65
2024-05-09T16:45:02.159Z,17.63
2024-05-09T16:47:13.967Z,17.61
2024-05-09T16:49:26.837Z,17.60
2024-05-09T16:51:38.781Z,17.59
2024-05-09T16:53:50.448Z,17.58
2024-05-09T16:56:02.853Z,17.57
2024-05-09T17:01:18.140Z,17.52
2024-05-09T17:03:29.821Z,17.50
2024-05-09T17:05:41.918Z,17.48
2024-05-09T17:07:54.621Z,17.46
2024-05-09T17:10:19.187Z,17.45
2024-05-09T17:12:34.752Z,17.43
2024-05-09T17:14:46.499Z,17.39
2024-05-09T17:16:58.729Z,17.33
2024-05-09T17:19:10.795Z,17.31
2024-05-09T17:21:22.482Z,17.27
2024-05-09T17:23:35.151Z,17.22
2024-05-09T17:25:47.065Z,17.18
2024-05-09T17:28:05.053Z,17.17
2024-05-09T17:30:28.102Z,17.16
2024-05-09T17:32:44.531Z,17.15
2024-05-09T17:34:55.983Z,17.15
2024-05-09T17:37:07.762Z,17.13
2024-05-09T17:39:19.246Z,17.13
2024-05-09T17:41:30.914Z,17.11
2024-05-09T17:43:42.606Z,17.10
2024-05-09T17:46:22.224Z,17.08
2024-05-09T17:48:34.701Z,17.04
2024-05-09T17:50:46.244Z,17.02
2024-05-09T17:52:58.251Z,17.00
2024-05-09T17:55:09.899Z,16.97
2024-05-09T17:57:21.955Z,16.94
2024-05-09T17:59:33.407Z,16.92
2024-05-09T18:01:45.423Z,16.89
2024-05-09T18:03:57.198Z,16.87
2024-05-09T18:06:09.386Z,16.84
2024-05-09T18:08:21.585Z,16.80
2024-05-09T18:10:37.813Z,16.76
2024-05-09T18:12:51.328Z,16.70
2024-05-09T18:15:03.508Z,16.67
2024-05-09T18:17:15.096Z,16.63
2024-05-09T18:19:27.188Z,16.58
2024-05-09T18:21:38.931Z,16.52
2024-05-09T18:23:53.978Z,16.47
2024-05-09T18:26:08.748Z,16.40
2024-05-09T18:28:23.178Z,16.32
2024-05-09T18:30:47.713Z,16.24
2024-05-09T18:32:59.599Z,16.14
2024-05-09T18:35:12.140Z,16.03
2024-05-09T18:37:23.936Z,15.91
2024-05-09T18:39:35.776Z,15.84
2024-05-09T18:41:47.200Z,15.80
2024-05-09T18:43:59.229Z,15.75
2024-05-09T18:46:12.450Z,15.71
2024-05-09T18:48:24.293Z,15.66
2024-05-09T18:50:39.511Z,15.64
2024-05-09T18:52:52.886Z,15.60
2024-05-09T18:55:05.340Z,15.57
2024-05-09T18:57:17.014Z,15.52
2024-05-09T18:59:29.037Z,15.48
2024-05-09T19:02:07.513Z,15.42
2024-05-09T19:04:19.575Z,15.38
2024-05-09T19:06:31.948Z,15.35
2024-05-09T19:08:44.058Z,15.31
2024-05-09T19:10:55.721Z,15.26
2024-05-09T19:13:11.898Z,15.20
2024-05-09T19:15:24.922Z,15.11
2024-05-09T19:17:36.775Z,15.06
2024-05-09T19:19:49.361Z,15.01
2024-05-09T19:22:00.905Z,14.96
2024-05-09T19:24:12.480Z,14.90
2024-05-09T19:26:24.997Z,14.83
2024-05-09T19:28:36.776Z,14.78
2024-05-09T19:30:48.307Z,14.71
2024-05-09T19:33:01.064Z,14.67
2024-05-09T19:35:13.170Z,14.61
2024-05-09T19:37:28.588Z,14.54
2024-05-09T19:39:40.433Z,14.47
2024-05-09T19:41:51.921Z,14.41
2024-05-09T19:44:04.140Z,14.34
2024-05-09T19:46:35.429Z,14.26
2024-05-09T19:48:47.835Z,14.20
2024-05-09T19:50:59.597Z,14.13
2024-05-09T19:53:13.254Z,14.09
2024-05-09T19:55:26.335Z,14.05
2024-05-09T19:57:38.304Z,13.99
2024-05-09T19:59:50.217Z,13.93
2024-05-09T20:02:02.015Z,13.88
2024-05-09T20:04:13.834Z,13.80
2024-05-09T20:06:27.825Z,13.69
2024-05-09T20:08:39.619Z,13.61
2024-05-09T20:10:51.209Z,13.46
2024-05-09T20:13:03.596Z,13.34
2024-05-09T20:15:15.707Z,13.23
2024-05-09T20:17:27.020Z,13.14
2024-05-09T20:19:38.783Z,13.04
2024-05-09T20:21:50.385Z,12.96
2024-05-09T20:24:01.938Z,12.90
2024-05-09T20:26:13.572Z,12.83
2024-05-09T20:28:25.563Z,12.78
2024-05-09T20:30:37.244Z,12.72
2024-05-09T20:32:49.682Z,12.70
2024-05-09T20:35:01.506Z,12.68
2024-05-09T20:37:13.141Z,12.66
2024-05-09T20:39:26.015Z,12.64
2024-05-09T20:41:42.944Z,12.61
2024-05-09T20:43:57.675Z,12.57
2024-05-09T20:46:14.919Z,12.54
2024-05-09T20:48:27.191Z,12.49
2024-05-09T20:50:41.790Z,12.47
2024-05-09T20:52:54.771Z,12.45
2024-05-09T20:55:07.038Z,12.43
2024-05-09T20:57:35.203Z,12.40
2024-05-09T20:59:47.553Z,12.37
2024-05-09T21:02:00.620Z,12.35
2024-05-09T21:04:13.571Z,12.33
2024-05-09T21:06:26.087Z,12.29
2024-05-09T21:08:37.583Z,12.27
2024-05-09T21:10:49.645Z,12.24
2024-05-09T21:13:03.011Z,12.22
2024-05-09T21:15:15.504Z,12.21
2024-05-09T21:17:28.456Z,12.20
2024-05-09T21:19:39.910Z,12.18
2024-05-09T21:21:53.079Z,12.13
2024-05-09T21:24:05.425Z,12.07
2024-05-09T21:26:19.582Z,12.03
2024-05-09T21:28:31.203Z,11.99
2024-05-09T21:30:43.575Z,11.94
2024-05-09T21:32:55.421Z,11.89
2024-05-09T21:35:07.567Z,11.85
2024-05-09T21:37:19.106Z,11.81
2024-05-09T21:39:31.037Z,11.78
2024-05-09T21:41:42.416Z,11.75
2024-05-09T21:43:54.006Z,11.71
2024-05-09T21:46:06.538Z,11.65
2024-05-09T21:48:17.964Z,11.62
2024-05-09T21:50:36.875Z,11.58
2024-05-09T21:52:52.017Z,11.55
2024-05-09T21:55:03.878Z,11.54
2024-05-09T21:57:15.794Z,11.51
2024-05-09T21:59:27.372Z,11.50
2024-05-09T22:01:40.197Z,11.47
2024-05-09T22:03:52.097Z,11.45
2024-05-09T22:06:03.810Z,11.43
2024-05-09T22:08:15.304Z,11.41
2024-05-09T22:10:33.406Z,11.39
2024-05-09T22:12:47.565Z,11.35
2024-05-09T22:14:59.428Z,11.33
2024-05-09T22:17:11.147Z,11.30
2024-05-09T22:19:22.752Z,11.27
2024-05-09T22:21:34.233Z,11.24
2024-05-09T22:23:46.010Z,11.23
2024-05-09T22:25:57.560Z,11.20
2024-05-09T22:28:09.774Z,11.17
2024-05-09T22:30:27.899Z,11.14
2024-05-09T22:32:46.515Z,11.09
2024-05-09T22:34:58.094Z,11.06
2024-05-09T22:37:09.995Z,11.03
2024-05-09T22:39:23.288Z,11.02
2024-05-09T22:41:34.732Z,10.98
2024-05-09T22:43:46.318Z,10.96
2024-05-09T22:45:58.070Z,10.94
2024-05-09T22:48:09.787Z,10.91
2024-05-09T22:50:26.814Z,10.89
2024-05-09T22:52:42.628Z,10.87
2024-05-09T22:54:54.184Z,10.83
2024-05-09T22:57:06.071Z,10.81
2024-05-09T22:59:17.346Z,10.77
2024-05-09T23:01:29.531Z,10.75
2024-05-09T23:03:41.540Z,10.73
2024-05-09T23:05:53.539Z,10.70
2024-05-09T23:08:05.558Z,10.68
2024-05-09T23:10:24.293Z,10.67
2024-05-09T23:12:42.626Z,10.65
2024-05-09T23:14:54.630Z,10.61
2024-05-09T23:17:06.253Z,10.59
2024-05-09T23:19:18.137Z,10.57
2024-05-09T23:21:29.998Z,10.56
2024-05-09T23:23:42.295Z,10.54
2024-05-09T23:25:53.879Z,10.52
2024-05-09T23:28:06.518Z,10.50
2024-05-09T23:30:28.991Z,10.49
2024-05-09T23:32:48.177Z,10.46
2024-05-09T23:35:00.327Z,10.45
2024-05-09T23:37:12.128Z,10.43
2024-05-09T23:39:23.766Z,10.39
2024-05-09T23:41:35.557Z,10.37
2024-05-09T23:43:46.836Z,10.34
2024-05-09T23:45:58.633Z,10.32
2024-05-09T23:48:10.949Z,10.32
2024-05-09T23:50:30.255Z,10.35
2024-05-09T23:52:45.981Z,10.35
2024-05-09T23:54:57.850Z,10.37
2024-05-09T23:57:09.146Z,10.39
2024-05-09T23:59:20.729Z,10.39
